Time;durP1;ratioP1;P1;durP2;ratioP2;P2;SDS_P1;SDS_P2;PMS_P1;PMS_P2;Temp;Humidity;BMP_temperature;BMP_pressure;BME280_temperature;BME280_humidity;BME280_pressure;Samples;Min_cycle;Max_cycle;Signal;HPM_P1;HPM_P2
2021/04/26 00:00:22;;;;;;;13.53;8.63;;;10.70;99.90;;;;;;5118528;27;20205;-69
2021/04/26 00:02:48;;;;;;;13.95;7.97;;;10.60;99.90;;;;;;5137173;27;20203;-66
2021/04/26 00:05:15;;;;;;;11.70;8.20;;;10.60;99.90;;;;;;5136776;27;20167;-69
2021/04/26 00:07:41;;;;;;;10.55;8.38;;;10.60;99.90;;;;;;5137029;27;20232;-66
2021/04/26 00:10:08;;;;;;;12.15;8.18;;;10.50;99.90;;;;;;5118251;27;20175;-67
2021/04/26 00:12:34;;;;;;;12.05;9.20;;;10.40;99.90;;;;;;5137001;27;20711;-69
2021/04/26 00:15:00;;;;;;;10.43;8.20;;;10.40;99.90;;;;;;5136628;27;20289;-68
2021/04/26 00:17:25;;;;;;;11.33;8.60;;;10.40;99.90;;;;;;5118204;27;20327;-66
2021/04/26 00:19:51;;;;;;;12.90;8.50;;;10.20;99.90;;;;;;5136526;27;20167;-66
2021/04/26 00:22:16;;;;;;;14.63;9.07;;;10.10;99.90;;;;;;5136838;27;20181;-67
2021/04/26 00:24:42;;;;;;;14.93;10.53;;;10.00;99.90;;;;;;5117866;27;20175;-66
2021/04/26 00:27:08;;;;;;;14.23;8.90;;;10.00;99.90;;;;;;5136678;27;20179;-67
2021/04/26 00:29:34;;;;;;;15.13;9.00;;;10.00;99.90;;;;;;5136141;27;20676;-67
2021/04/26 00:32:00;;;;;;;14.53;9.00;;;10.00;99.90;;;;;;5136583;27;20183;-65
2021/04/26 00:34:25;;;;;;;14.40;8.93;;;10.10;99.90;;;;;;5136206;27;20191;-66
2021/04/26 00:36:51;;;;;;;14.23;9.93;;;10.10;99.90;;;;;;5136402;27;20187;-66
2021/04/26 00:39:17;;;;;;;13.40;8.70;;;10.00;99.90;;;;;;5136064;27;20241;-67
2021/04/26 00:41:43;;;;;;;12.88;8.93;;;10.00;99.90;;;;;;5136272;27;20175;-67
2021/04/26 00:44:08;;;;;;;12.10;8.80;;;10.00;99.90;;;;;;5135986;27;20191;-65
2021/04/26 00:46:34;;;;;;;14.73;9.33;;;10.00;99.90;;;;;;5135818;27;20219;-68
2021/04/26 00:48:59;;;;;;;16.43;9.50;;;10.10;99.90;;;;;;5135970;27;20202;-68
2021/04/26 00:51:26;;;;;;;10.60;7.93;;;10.10;99.90;;;;;;5135818;27;20179;-66
2021/04/26 00:53:52;;;;;;;13.68;9.50;;;10.00;99.90;;;;;;5135747;27;20198;-66
2021/04/26 00:56:17;;;;;;;12.00;9.13;;;9.90;99.90;;;;;;5135962;27;20171;-65
2021/04/26 00:58:43;;;;;;;12.00;9.33;;;9.90;99.90;;;;;;5135683;27;20468;-67
2021/04/26 01:01:09;;;;;;;13.70;9.50;;;9.80;99.90;;;;;;5135812;27;20206;-67
2021/04/26 01:03:35;;;;;;;13.97;9.10;;;9.80;99.90;;;;;;5117146;27;20195;-66
2021/04/26 01:06:01;;;;;;;13.20;9.82;;;9.70;99.90;;;;;;5134689;27;20411;-66
2021/04/26 01:08:26;;;;;;;14.10;9.60;;;9.60;99.90;;;;;;5135445;27;20232;-67
2021/04/26 01:10:53;;;;;;;14.07;8.43;;;9.60;99.90;;;;;;5135523;27;20184;-66
2021/04/26 01:13:31;;;;;;;15.27;9.82;;;9.50;99.90;;;;;;5135437;27;20191;-70
2021/04/26 01:16:05;;;;;;;13.88;10.23;;;9.60;99.90;;;;;;5135467;27;20186;-67
2021/04/26 01:18:48;;;;;;;17.15;9.43;;;9.50;99.90;;;;;;5135267;27;20183;-65
2021/04/26 01:21:35;;;;;;;10.40;8.48;;;9.40;99.90;;;;;;5135466;27;20175;-66
2021/04/26 01:24:28;;;;;;;13.93;10.30;;;9.40;99.90;;;;;;5135240;27;20195;-66
2021/04/26 01:27:06;;;;;;;14.65;9.57;;;9.30;99.90;;;;;;5135520;27;20588;-65
2021/04/26 01:29:34;;;;;;;11.35;9.00;;;9.30;99.90;;;;;;5135118;27;20703;-66
2021/04/26 01:32:26;;;;;;;12.65;9.57;;;9.20;99.90;;;;;;5135085;27;20675;-68
2021/04/26 01:34:54;;;;;;;16.67;10.45;;;9.10;99.90;;;;;;5135124;27;20540;-66
2021/04/26 01:37:20;;;;;;;14.05;8.63;;;9.10;99.90;;;;;;5135382;27;20583;-67
2021/04/26 01:39:48;;;;;;;16.55;9.88;;;9.10;99.90;;;;;;5134999;27;20211;-66
2021/04/26 01:42:16;;;;;;;17.42;10.02;;;9.00;99.90;;;;;;5135289;27;20186;-67
2021/04/26 01:44:42;;;;;;;12.48;9.52;;;9.00;99.90;;;;;;5134908;27;20187;-68
2021/04/26 01:47:08;;;;;;;13.00;9.43;;;9.00;99.90;;;;;;5116187;27;20238;-66
2021/04/26 01:49:36;;;;;;;15.63;9.32;;;9.00;99.90;;;;;;5116299;27;20531;-68
2021/04/26 01:52:06;;;;;;;13.70;9.45;;;8.90;99.90;;;;;;5135293;27;20667;-66
2021/04/26 01:54:33;;;;;;;16.95;10.73;;;8.80;99.90;;;;;;5134801;27;20194;-65
2021/04/26 01:56:59;;;;;;;16.52;10.30;;;8.70;99.90;;;;;;5134665;27;20308;-67
2021/04/26 01:59:26;;;;;;;17.67;11.65;;;8.70;99.90;;;;;;5134794;27;20602;-69
2021/04/26 02:01:54;;;;;;;17.15;11.20;;;8.70;99.90;;;;;;5134663;27;20664;-68
2021/04/26 02:04:20;;;;;;;20.95;11.40;;;8.50;99.90;;;;;;5134723;27;20272;-66
2021/04/26 02:06:48;;;;;;;14.47;10.87;;;8.60;99.90;;;;;;5116346;28;20246;-65
2021/04/26 02:09:15;;;;;;;19.92;10.95;;;8.70;99.90;;;;;;5134602;28;20465;-66
2021/04/26 02:11:41;;;;;;;13.55;9.82;;;8.60;99.90;;;;;;5134825;28;20219;-66
2021/04/26 02:14:10;;;;;;;17.70;10.60;;;8.50;99.90;;;;;;5116095;28;20278;-68
2021/04/26 02:16:35;;;;;;;15.75;10.52;;;8.50;99.90;;;;;;5136760;27;20534;-66
2021/04/26 02:19:01;;;;;;;17.73;11.27;;;8.40;99.90;;;;;;5120404;27;20187;-65
2021/04/26 02:21:27;;;;;;;15.83;10.27;;;8.30;99.90;;;;;;5139014;27;20179;-66
2021/04/26 02:23:53;;;;;;;18.03;10.83;;;8.30;99.90;;;;;;5138750;27;20195;-66
2021/04/26 02:26:19;;;;;;;17.95;12.50;;;8.30;99.90;;;;;;5138813;27;20178;-65
2021/04/26 02:28:44;;;;;;;15.63;10.73;;;8.30;99.90;;;;;;5120112;27;20211;-67
2021/04/26 02:31:15;;;;;;;16.47;11.20;;;8.20;99.90;;;;;;5120216;27;20183;-68
2021/04/26 02:33:47;;;;;;;15.00;10.57;;;8.10;99.90;;;;;;5138638;27;20194;-66
2021/04/26 02:36:21;;;;;;;16.13;10.95;;;8.20;99.90;;;;;;5138711;27;20167;-66
2021/04/26 02:38:51;;;;;;;14.18;10.65;;;8.10;99.90;;;;;;5138448;27;20734;-65
2021/04/26 02:41:21;;;;;;;16.15;10.73;;;8.10;99.90;;;;;;5138588;27;20178;-68
2021/04/26 02:43:52;;;;;;;14.65;10.30;;;8.20;99.90;;;;;;5138481;27;20320;-68
2021/04/26 02:46:22;;;;;;;14.60;10.23;;;8.10;99.90;;;;;;5138440;27;20218;-67
2021/04/26 02:48:49;;;;;;;19.15;10.25;;;8.00;99.90;;;;;;5138258;27;20223;-67
2021/04/26 02:51:15;;;;;;;15.40;10.70;;;7.90;99.90;;;;;;5138416;27;20633;-66
2021/04/26 02:53:42;;;;;;;15.15;9.50;;;7.90;99.90;;;;;;5138094;27;20277;-67
2021/04/26 02:56:10;;;;;;;15.25;10.27;;;7.90;99.90;;;;;;5119699;27;20194;-68
2021/04/26 02:58:37;;;;;;;14.50;10.13;;;7.80;99.90;;;;;;5138047;27;20198;-65
2021/04/26 03:01:08;;;;;;;14.43;10.70;;;7.80;99.90;;;;;;5138124;27;20185;-65
2021/04/26 03:03:37;;;;;;;15.70;9.60;;;7.70;99.90;;;;;;5137975;27;20203;-65
2021/04/26 03:06:03;;;;;;;13.07;9.90;;;7.60;99.90;;;;;;5138282;27;20685;-67
2021/04/26 03:08:30;;;;;;;17.95;11.95;;;7.50;99.90;;;;;;5119455;27;20230;-66
2021/04/26 03:10:57;;;;;;;15.65;11.43;;;7.40;99.90;;;;;;5137948;27;20176;-66
2021/04/26 03:13:26;;;;;;;15.90;10.45;;;7.40;99.90;;;;;;5137843;27;20281;-66
2021/04/26 03:15:52;;;;;;;16.25;11.50;;;7.50;99.90;;;;;;5137799;27;20198;-65
2021/04/26 03:18:18;;;;;;;15.50;10.63;;;7.40;99.90;;;;;;5137683;27;20201;-66
2021/04/26 03:20:45;;;;;;;15.67;11.40;;;7.30;99.90;;;;;;5137715;27;20179;-67
2021/04/26 03:23:16;;;;;;;18.25;10.32;;;7.30;99.90;;;;;;5137709;27;20427;-67
2021/04/26 03:25:41;;;;;;;14.00;9.45;;;7.20;99.90;;;;;;5137669;27;20204;-67
2021/04/26 03:28:07;;;;;;;18.90;11.60;;;7.10;99.90;;;;;;5136316;27;20211;-66
2021/04/26 03:30:33;;;;;;;16.67;11.13;;;7.20;99.90;;;;;;5137488;27;20182;-66
2021/04/26 03:32:59;;;;;;;14.50;9.60;;;7.30;99.90;;;;;;5118991;27;20195;-66
2021/04/26 03:35:25;;;;;;;17.42;11.55;;;7.40;99.90;;;;;;5137398;27;20179;-66
2021/04/26 03:37:53;;;;;;;17.65;11.40;;;7.40;99.90;;;;;;5137666;27;20203;-67
2021/04/26 03:40:21;;;;;;;17.27;11.55;;;7.30;99.90;;;;;;5137328;27;20674;-66
2021/04/26 03:42:51;;;;;;;17.00;10.80;;;7.30;99.90;;;;;;5137764;27;20203;-66
2021/04/26 03:45:17;;;;;;;16.42;11.80;;;7.40;99.90;;;;;;5118756;27;20167;-68
2021/04/26 03:47:44;;;;;;;15.33;11.33;;;7.40;99.90;;;;;;5136744;27;20235;-66
2021/04/26 03:50:10;;;;;;;18.42;10.63;;;7.40;99.90;;;;;;5137207;27;20573;-67
2021/04/26 03:52:36;;;;;;;20.83;10.88;;;7.30;99.90;;;;;;5137432;27;20694;-67
2021/04/26 03:55:02;;;;;;;15.67;10.70;;;7.30;99.90;;;;;;5136531;27;20167;-67
2021/04/26 03:57:28;;;;;;;16.52;10.75;;;7.30;99.90;;;;;;5137219;27;20182;-65
2021/04/26 03:59:53;;;;;;;18.70;11.93;;;7.30;99.90;;;;;;5136934;27;20546;-68
2021/04/26 04:02:19;;;;;;;17.93;11.23;;;7.30;99.90;;;;;;5137212;27;20180;-66
2021/04/26 04:04:44;;;;;;;17.40;10.27;;;8.70;99.90;;;;;;5136780;27;20168;-66
2021/04/26 04:07:10;;;;;;;17.33;11.00;;;9.70;99.90;;;;;;5137161;27;20187;-67
2021/04/26 04:09:35;;;;;;;17.17;11.87;;;10.30;99.90;;;;;;5136613;27;20283;-67
2021/04/26 04:12:01;;;;;;;15.17;10.20;;;10.70;99.90;;;;;;5137032;27;20171;-65
2021/04/26 04:14:27;;;;;;;22.30;10.77;;;10.90;99.90;;;;;;5136651;27;20293;-67
2021/04/26 04:16:52;;;;;;;16.50;10.37;;;11.00;99.90;;;;;;5136848;27;20172;-65
2021/04/26 04:19:18;;;;;;;16.87;11.70;;;11.30;99.90;;;;;;5135950;27;20722;-67
2021/04/26 04:21:43;;;;;;;16.60;10.90;;;11.40;99.90;;;;;;5134913;27;20183;-67
2021/04/26 04:24:09;;;;;;;13.10;9.10;;;11.50;99.90;;;;;;5136176;27;20283;-65
2021/04/26 04:26:35;;;;;;;20.02;11.63;;;11.50;99.90;;;;;;5136598;27;20224;-65
2021/04/26 04:29:00;;;;;;;11.13;9.30;;;11.60;99.90;;;;;;5136348;27;20592;-65
2021/04/26 04:31:26;;;;;;;15.27;9.60;;;11.70;99.90;;;;;;5136507;27;20261;-66
2021/04/26 04:33:52;;;;;;;14.10;9.10;;;11.80;99.90;;;;;;5136168;27;20191;-64
2021/04/26 04:36:17;;;;;;;12.63;9.10;;;11.90;99.90;;;;;;5136472;27;20179;-65
2021/04/26 04:38:43;;;;;;;15.80;10.70;;;12.00;99.90;;;;;;5135933;27;20183;-65
2021/04/26 04:41:08;;;;;;;16.00;10.20;;;12.10;99.90;;;;;;5117733;27;20309;-65
2021/04/26 04:43:34;;;;;;;14.80;9.03;;;12.20;99.90;;;;;;5112683;27;20196;-67
2021/04/26 04:46:00;;;;;;;15.73;11.27;;;12.20;99.90;;;;;;5116403;27;20242;-65
2021/04/26 04:48:25;;;;;;;22.20;12.00;;;10.20;99.90;;;;;;5135973;27;20211;-65
2021/04/26 04:50:51;;;;;;;13.77;10.23;;;10.50;99.90;;;;;;5134252;27;20227;-65
2021/04/26 04:53:17;;;;;;;13.70;9.50;;;11.40;99.90;;;;;;5133873;27;20276;-66
2021/04/26 04:55:42;;;;;;;15.40;10.07;;;11.80;99.90;;;;;;5133778;27;20179;-68
2021/04/26 04:58:08;;;;;;;17.60;10.67;;;12.00;99.90;;;;;;5131751;27;20203;-65
2021/04/26 05:00:33;;;;;;;16.67;10.60;;;10.20;99.90;;;;;;5131092;27;20175;-68
2021/04/26 05:02:59;;;;;;;15.20;10.30;;;8.90;99.90;;;;;;5133686;27;20583;-68
2021/04/26 05:05:25;;;;;;;15.70;10.17;;;8.50;99.90;;;;;;5113668;27;20179;-65
2021/04/26 05:07:50;;;;;;;14.53;10.90;;;8.30;99.90;;;;;;5134362;27;20203;-65
2021/04/26 05:10:16;;;;;;;15.63;9.30;;;8.20;99.90;;;;;;5134032;27;20232;-68
2021/04/26 05:12:42;;;;;;;12.70;10.03;;;9.20;99.90;;;;;;5132881;27;20649;-65
2021/04/26 05:15:08;;;;;;;12.30;9.27;;;9.30;99.90;;;;;;5115351;27;20557;-67
2021/04/26 05:17:34;;;;;;;12.23;8.07;;;9.00;99.90;;;;;;5133889;27;20195;-64
2021/04/26 05:19:59;;;;;;;13.53;8.13;;;10.00;99.90;;;;;;5132410;27;20183;-67
2021/04/26 05:22:25;;;;;;;9.77;8.50;;;11.00;99.90;;;;;;5134289;27;20187;-66
2021/04/26 05:24:53;;;;;;;11.30;8.60;;;11.50;99.90;;;;;;5133403;27;20205;-67
2021/04/26 05:27:18;;;;;;;13.20;8.20;;;11.90;99.90;;;;;;5127259;27;20453;-65
2021/04/26 05:29:44;;;;;;;13.53;6.80;;;12.20;99.90;;;;;;5131266;27;20218;-68
2021/04/26 05:32:10;;;;;;;11.63;7.57;;;12.50;99.90;;;;;;5128120;27;20715;-67
2021/04/26 05:34:35;;;;;;;12.33;8.37;;;12.60;99.90;;;;;;5109632;27;20213;-66
2021/04/26 05:37:01;;;;;;;8.27;6.23;;;12.90;99.90;;;;;;5129553;27;20194;-66
2021/04/26 05:39:27;;;;;;;10.53;6.80;;;12.90;99.90;;;;;;5132153;27;20199;-65
2021/04/26 05:41:52;;;;;;;10.23;6.65;;;13.10;99.90;;;;;;5131345;27;20270;-68
2021/04/26 05:44:18;;;;;;;8.77;5.87;;;13.20;99.90;;;;;;5111644;27;20340;-65
2021/04/26 05:46:44;;;;;;;8.40;5.60;;;13.30;99.90;;;;;;5129540;27;20219;-68
2021/04/26 05:49:09;;;;;;;8.27;5.70;;;13.50;99.90;;;;;;5130239;27;20326;-68
2021/04/26 05:51:35;;;;;;;9.50;6.20;;;13.60;99.90;;;;;;5128137;27;20187;-65
2021/04/26 05:54:00;;;;;;;8.57;4.70;;;13.70;99.90;;;;;;5112930;27;20199;-65
2021/04/26 05:56:26;;;;;;;8.60;6.20;;;13.70;99.90;;;;;;5130721;27;20183;-65
2021/04/26 05:58:52;;;;;;;5.23;4.73;;;13.80;99.90;;;;;;5130932;27;20244;-66
2021/04/26 06:01:17;;;;;;;7.73;4.53;;;13.90;99.90;;;;;;5114130;27;20278;-67
2021/04/26 06:03:43;;;;;;;6.70;5.63;;;13.90;99.90;;;;;;5131308;27;20231;-65
2021/04/26 06:06:09;;;;;;;5.10;4.43;;;14.00;99.90;;;;;;5128401;27;20179;-68
2021/04/26 06:08:35;;;;;;;5.43;4.20;;;14.10;99.90;;;;;;5113975;28;20215;-65
2021/04/26 06:11:01;;;;;;;8.30;4.70;;;14.00;99.90;;;;;;5132585;28;20189;-66
2021/04/26 06:13:27;;;;;;;7.13;4.47;;;14.10;99.90;;;;;;5130038;27;20802;-68
2021/04/26 06:15:52;;;;;;;5.47;3.53;;;14.10;99.90;;;;;;5128407;28;20179;-66
2021/04/26 06:18:21;;;;;;;6.20;4.53;;;14.20;99.90;;;;;;5128285;28;20202;-68
2021/04/26 06:20:48;;;;;;;5.10;3.85;;;14.30;99.90;;;;;;5131552;28;20712;-67
2021/04/26 06:23:14;;;;;;;8.60;3.58;;;14.30;99.90;;;;;;5108610;28;20252;-67
2021/04/26 06:25:40;;;;;;;5.32;3.80;;;14.40;99.90;;;;;;5126682;28;20179;-69
2021/04/26 06:28:11;;;;;;;3.33;2.73;;;14.30;99.90;;;;;;5121050;27;20206;-66
2021/04/26 06:30:38;;;;;;;5.10;3.08;;;14.40;99.90;;;;;;5132599;28;20175;-65
2021/04/26 06:33:04;;;;;;;3.90;2.60;;;14.30;99.90;;;;;;5132064;28;20214;-66
2021/04/26 06:35:31;;;;;;;4.93;3.38;;;14.50;99.90;;;;;;5132826;28;20636;-66
2021/04/26 06:37:57;;;;;;;4.03;3.00;;;14.60;99.90;;;;;;5132921;27;20576;-67
2021/04/26 06:40:23;;;;;;;4.97;3.38;;;14.70;99.90;;;;;;5130535;28;20179;-67
2021/04/26 06:42:49;;;;;;;2.80;2.60;;;14.80;99.90;;;;;;5132765;28;20211;-64
2021/04/26 06:45:21;;;;;;;4.33;2.87;;;14.70;99.90;;;;;;5132075;28;20179;-67
2021/04/26 06:47:48;;;;;;;4.32;3.15;;;14.90;99.90;;;;;;5126435;28;20470;-68
2021/04/26 06:50:14;;;;;;;4.93;2.70;;;14.90;97.80;;;;;;5123861;28;20183;-69
2021/04/26 06:52:40;;;;;;;3.63;2.80;;;15.00;99.90;;;;;;5129806;28;20206;-68
2021/04/26 06:55:06;;;;;;;4.50;3.43;;;15.10;99.90;;;;;;5131483;28;20430;-66
2021/04/26 06:57:32;;;;;;;4.83;3.87;;;15.10;96.40;;;;;;5130117;27;20439;-68
2021/04/26 06:59:57;;;;;;;5.20;2.80;;;14.70;98.40;;;;;;5112260;28;20432;-69
2021/04/26 07:02:23;;;;;;;3.07;2.30;;;14.80;99.90;;;;;;5111003;27;20207;-68
2021/04/26 07:04:48;;;;;;;4.53;3.03;;;15.00;99.90;;;;;;5116228;27;20225;-72
2021/04/26 07:07:17;;;;;;;3.63;2.93;;;14.80;99.90;;;;;;5112489;27;20613;-67
2021/04/26 07:09:44;;;;;;;4.50;2.67;;;14.90;99.30;;;;;;5133465;27;20202;-68
2021/04/26 07:12:10;;;;;;;5.03;2.50;;;14.90;99.90;;;;;;5132174;27;20502;-71
2021/04/26 07:14:35;;;;;;;5.37;2.83;;;15.10;99.40;;;;;;5134030;27;20619;-69
2021/04/26 07:17:01;;;;;;;3.20;2.40;;;15.00;94.60;;;;;;5134757;27;20262;-66
2021/04/26 07:19:27;;;;;;;2.50;2.30;;;15.30;99.90;;;;;;5135804;27;20206;-68
2021/04/26 07:21:52;;;;;;;4.10;2.37;;;15.40;98.10;;;;;;5129581;27;20600;-69
2021/04/26 07:24:18;;;;;;;2.50;2.30;;;15.60;99.90;;;;;;5131552;27;20537;-68
2021/04/26 07:26:43;;;;;;;2.93;2.13;;;15.80;99.90;;;;;;5126531;27;20179;-66
2021/04/26 07:29:09;;;;;;;3.67;2.90;;;16.00;99.90;;;;;;5112391;27;20305;-68
2021/04/26 07:31:35;;;;;;;2.83;2.50;;;16.10;99.90;;;;;;5128573;27;20624;-68
2021/04/26 07:34:00;;;;;;;2.60;2.40;;;15.80;87.50;;;;;;5124889;27;20285;-69
2021/04/26 07:36:26;;;;;;;2.37;2.17;;;15.90;96.60;;;;;;5108960;27;20544;-68
2021/04/26 07:38:51;;;;;;;3.97;2.57;;;16.00;97.00;;;;;;5104661;27;20199;-68
2021/04/26 07:41:17;;;;;;;2.97;2.60;;;16.20;98.30;;;;;;5124624;27;20798;-69
2021/04/26 07:43:42;;;;;;;6.13;2.50;;;16.20;96.20;;;;;;5128342;27;20195;-68
2021/04/26 07:46:08;;;;;;;2.53;2.17;;;16.30;98.00;;;;;;5129709;27;20179;-70
2021/04/26 07:48:36;;;;;;;4.10;2.40;;;16.50;96.40;;;;;;5126292;27;20621;-69
2021/04/26 07:51:02;;;;;;;4.10;2.73;;;16.60;93.50;;;;;;5113719;27;20188;-65
2021/04/26 07:53:27;;;;;;;4.87;2.13;;;16.30;86.20;;;;;;5129208;27;20778;-71
2021/04/26 07:55:53;;;;;;;4.60;2.60;;;16.40;93.30;;;;;;5129296;27;20175;-70
2021/04/26 07:58:19;;;;;;;3.07;2.50;;;16.40;94.40;;;;;;5108840;27;20230;-69
2021/04/26 08:00:44;;;;;;;4.00;2.67;;;16.40;91.90;;;;;;5132707;27;20179;-68
2021/04/26 08:03:10;;;;;;;5.87;2.53;;;16.40;86.70;;;;;;5127642;27;20208;-68
2021/04/26 08:05:36;;;;;;;6.20;3.27;;;16.80;92.60;;;;;;5113175;27;20652;-66
2021/04/26 08:08:02;;;;;;;2.20;1.97;;;16.90;94.30;;;;;;5103050;27;20256;-68
2021/04/26 08:10:27;;;;;;;2.87;2.43;;;16.90;92.80;;;;;;5112371;27;20427;-69
2021/04/26 08:12:53;;;;;;;4.23;2.50;;;17.00;92.90;;;;;;5127229;27;20651;-67
2021/04/26 08:15:21;;;;;;;4.23;2.10;;;17.30;94.10;;;;;;5128950;27;20270;-67
2021/04/26 08:17:47;;;;;;;2.97;2.60;;;17.50;91.70;;;;;;5127748;27;20209;-65
2021/04/26 08:20:13;;;;;;;4.90;2.20;;;17.70;93.50;;;;;;5123472;27;20424;-68
2021/04/26 08:22:38;;;;;;;3.23;2.40;;;17.70;90.40;;;;;;5107710;27;20525;-69
2021/04/26 08:25:04;;;;;;;3.27;2.20;;;17.50;91.40;;;;;;5127573;27;20182;-66
2021/04/26 08:27:30;;;;;;;2.80;2.10;;;17.80;91.90;;;;;;5129563;27;20195;-66
2021/04/26 08:29:56;;;;;;;3.83;2.80;;;17.00;64.20;;;;;;5131968;27;20458;-70
2021/04/26 08:32:21;;;;;;;2.20;1.90;;;17.40;77.40;;;;;;5131866;27;20194;-69
2021/04/26 08:34:47;;;;;;;4.83;2.47;;;17.90;86.60;;;;;;5131299;27;20172;-70
2021/04/26 08:37:13;;;;;;;2.97;2.53;;;18.20;89.30;;;;;;5113255;27;20183;-67
2021/04/26 08:39:38;;;;;;;3.90;2.20;;;18.40;84.10;;;;;;5132056;27;20218;-67
2021/04/26 08:42:05;;;;;;;3.40;2.97;;;18.60;88.10;;;;;;5131708;27;20183;-66
2021/04/26 08:44:31;;;;;;;3.27;2.67;;;18.20;65.80;;;;;;5130972;27;20194;-68
2021/04/26 08:46:57;;;;;;;4.77;3.57;;;17.30;64.60;;;;;;5127877;27;20806;-66
2021/04/26 08:49:23;;;;;;;3.33;2.47;;;17.70;63.80;;;;;;5111458;27;20497;-67
2021/04/26 08:51:49;;;;;;;2.50;2.27;;;18.20;78.20;;;;;;5132459;27;20437;-65
2021/04/26 08:54:16;;;;;;;2.70;1.80;;;18.60;70.50;;;;;;5132772;27;20443;-66
2021/04/26 08:56:42;;;;;;;2.80;2.43;;;18.90;79.10;;;;;;5116477;27;20194;-69
2021/04/26 08:59:08;;;;;;;3.40;2.30;;;19.00;66.30;;;;;;5128905;27;20435;-69
2021/04/26 09:01:34;;;;;;;2.40;2.00;;;19.30;70.70;;;;;;5132033;27;21081;-66
2021/04/26 09:04:08;;;;;;;3.90;2.00;;;19.20;80.00;;;;;;5115192;27;20492;-68
2021/04/26 09:07:12;;;;;;;2.37;2.17;;;19.20;73.10;;;;;;5127906;27;20190;-65
2021/04/26 09:09:52;;;;;;;2.83;2.60;;;19.10;71.90;;;;;;5028365;28;20541;-66
2021/04/26 09:12:30;;;;;;;3.03;2.30;;;19.30;78.30;;;;;;5005041;28;20444;-68
2021/04/26 09:14:59;;;;;;;3.00;2.40;;;19.50;76.40;;;;;;5069684;27;20435;-67
2021/04/26 09:17:34;;;;;;;2.30;2.10;;;19.40;76.00;;;;;;5132368;27;20434;-68
2021/04/26 09:20:22;;;;;;;2.63;2.43;;;19.50;73.30;;;;;;5129473;27;20445;-69
2021/04/26 09:22:47;;;;;;;4.10;2.47;;;19.60;78.50;;;;;;5112491;27;20549;-69
2021/04/26 09:25:37;;;;;;;2.80;2.20;;;19.60;77.00;;;;;;5124271;27;20512;-66
2021/04/26 09:28:13;;;;;;;3.70;2.30;;;18.80;58.10;;;;;;5128516;27;20742;-68
2021/04/26 09:30:41;;;;;;;2.43;1.83;;;19.30;67.80;;;;;;5123853;27;20436;-68
2021/04/26 09:33:49;;;;;;;2.23;2.03;;;19.80;74.70;;;;;;5116285;27;20451;-66
2021/04/26 09:36:21;;;;;;;7.93;2.90;;;19.80;70.80;;;;;;5121708;27;20435;-66
2021/04/26 09:38:51;;;;;;;2.73;2.43;;;19.90;66.10;;;;;;5130836;27;20807;-65
2021/04/26 09:41:28;;;;;;;3.60;2.40;;;20.00;75.50;;;;;;5128194;27;20531;-66
2021/04/26 09:44:02;;;;;;;4.00;3.10;;;20.00;76.40;;;;;;5124638;27;20864;-65
2021/04/26 09:46:45;;;;;;;3.17;2.33;;;19.00;60.80;;;;;;5112837;27;20513;-65
2021/04/26 09:49:15;;;;;;;3.60;2.20;;;18.10;57.90;;;;;;5131099;27;20471;-65
2021/04/26 09:51:48;;;;;;;2.63;2.43;;;17.90;61.50;;;;;;5111851;28;20430;-67
2021/04/26 09:54:14;;;;;;;3.43;2.57;;;17.90;61.80;;;;;;5127541;27;20443;-65
2021/04/26 09:56:45;;;;;;;2.90;2.07;;;18.60;68.90;;;;;;5123969;27;20443;-68
2021/04/26 09:59:12;;;;;;;3.30;2.90;;;18.60;67.60;;;;;;5130178;27;20442;-69
2021/04/26 10:01:39;;;;;;;2.60;2.27;;;18.50;63.60;;;;;;5123310;27;20443;-68
2021/04/26 10:04:07;;;;;;;2.80;2.03;;;18.50;70.30;;;;;;5126011;27;20653;-66
2021/04/26 10:06:33;;;;;;;2.50;2.30;;;18.60;73.60;;;;;;5111549;28;20434;-68
2021/04/26 10:09:03;;;;;;;3.20;2.60;;;18.40;71.30;;;;;;5130567;28;20540;-68
2021/04/26 10:11:31;;;;;;;3.00;2.30;;;18.50;73.30;;;;;;5111914;28;20820;-65
2021/04/26 10:14:09;;;;;;;3.00;2.67;;;18.50;72.10;;;;;;5126905;27;20435;-66
2021/04/26 10:16:54;;;;;;;2.30;2.07;;;16.40;58.60;;;;;;5133010;28;20443;-67
2021/04/26 10:19:44;;;;;;;2.80;2.60;;;15.70;60.30;;;;;;5111740;28;20428;-65
2021/04/26 10:22:10;;;;;;;3.13;2.83;;;15.00;61.50;;;;;;5101191;28;20428;-68
2021/04/26 10:24:53;;;;;;;3.20;2.40;;;15.30;61.70;;;;;;5131775;27;21042;-65
2021/04/26 10:27:40;;;;;;;3.17;2.63;;;15.40;60.80;;;;;;5131630;28;20179;-66
2021/04/26 10:30:12;;;;;;;2.70;2.50;;;15.30;59.30;;;;;;5109877;28;20467;-65
2021/04/26 10:33:06;;;;;;;3.13;2.10;;;14.80;60.60;;;;;;5132249;27;20468;-67
2021/04/26 10:35:52;;;;;;;3.07;2.50;;;15.60;59.80;;;;;;5112002;28;20527;-65
2021/04/26 10:38:37;;;;;;;4.53;2.67;;;16.90;70.20;;;;;;5129462;27;20485;-68
2021/04/26 10:41:05;;;;;;;4.83;2.10;;;17.50;67.80;;;;;;5131536;27;20445;-66
2021/04/26 10:43:31;;;;;;;2.60;2.00;;;17.80;70.90;;;;;;5116247;27;20531;-67
2021/04/26 10:46:20;;;;;;;2.70;2.20;;;18.00;67.80;;;;;;5136822;27;20499;-66
2021/04/26 10:49:04;;;;;;;2.57;2.37;;;17.00;61.00;;;;;;5120464;27;20825;-67
2021/04/26 10:51:31;;;;;;;4.00;2.40;;;17.00;59.00;;;;;;5129964;27;20964;-67
2021/04/26 10:53:56;;;;;;;3.83;3.10;;;17.00;60.80;;;;;;5136347;27;21024;-66
2021/04/26 10:56:27;;;;;;;3.60;2.63;;;17.00;61.00;;;;;;5137554;27;20464;-67
2021/04/26 10:59:32;;;;;;;2.83;2.40;;;17.00;59.40;;;;;;5135787;27;20206;-66
2021/04/26 11:01:57;;;;;;;3.00;2.57;;;17.30;63.00;;;;;;5052162;28;20441;-68
2021/04/26 11:04:23;;;;;;;2.23;2.07;;;17.70;66.10;;;;;;5048132;28;20442;-65
2021/04/26 11:07:03;;;;;;;3.37;2.20;;;18.10;65.60;;;;;;5090757;27;20187;-64
2021/04/26 11:09:38;;;;;;;4.13;2.50;;;18.30;64.00;;;;;;5131932;27;20688;-65
2021/04/26 11:12:31;;;;;;;4.00;2.13;;;18.10;63.60;;;;;;5114526;27;20443;-68
2021/04/26 11:15:13;;;;;;;3.63;2.40;;;18.20;60.00;;;;;;5132119;27;20399;-65
2021/04/26 11:17:39;;;;;;;3.80;2.50;;;18.50;68.70;;;;;;5129987;27;21110;-68
2021/04/26 11:20:20;;;;;;;3.67;2.70;;;18.50;72.10;;;;;;5130347;27;20931;-68
2021/04/26 11:22:46;;;;;;;3.07;2.23;;;18.60;72.40;;;;;;5128473;27;20199;-65
2021/04/26 11:25:37;;;;;;;3.30;2.50;;;18.70;72.40;;;;;;5115462;27;20429;-67
2021/04/26 11:28:03;;;;;;;3.33;2.30;;;18.80;70.50;;;;;;5128929;27;20451;-66
2021/04/26 11:30:34;;;;;;;3.33;2.87;;;18.30;64.20;;;;;;5127752;27;20418;-66
2021/04/26 11:33:01;;;;;;;3.67;2.70;;;17.50;59.20;;;;;;5129147;27;20459;-68
2021/04/26 11:35:28;;;;;;;3.07;2.37;;;17.20;60.80;;;;;;5110660;27;20419;-68
2021/04/26 11:37:54;;;;;;;2.97;2.50;;;17.70;61.60;;;;;;5126927;27;20814;-65
2021/04/26 11:40:22;;;;;;;3.13;2.17;;;17.70;62.60;;;;;;5112842;27;20487;-67
2021/04/26 11:42:48;;;;;;;4.33;2.50;;;18.00;62.60;;;;;;5107720;27;20464;-65
2021/04/26 11:45:15;;;;;;;2.53;1.93;;;18.30;68.00;;;;;;5113075;27;20792;-68
2021/04/26 11:47:40;;;;;;;2.60;2.40;;;18.60;70.30;;;;;;5109080;27;20809;-66
2021/04/26 11:50:09;;;;;;;2.63;2.33;;;18.60;70.40;;;;;;5109977;27;20459;-68
2021/04/26 11:52:36;;;;;;;3.20;2.40;;;18.40;62.20;;;;;;5130089;27;20647;-68
2021/04/26 11:55:05;;;;;;;2.57;2.37;;;17.90;59.80;;;;;;5114579;27;20462;-69
2021/04/26 11:57:45;;;;;;;4.00;2.50;;;18.30;69.30;;;;;;5114442;27;20503;-66
2021/04/26 12:00:14;;;;;;;5.60;2.97;;;18.60;71.30;;;;;;5129670;27;20442;-65
2021/04/26 12:02:44;;;;;;;2.50;2.00;;;18.70;70.30;;;;;;5112671;27;20451;-66
2021/04/26 12:05:11;;;;;;;2.87;2.03;;;18.80;70.80;;;;;;5105649;27;20867;-66
2021/04/26 12:07:38;;;;;;;2.30;1.90;;;18.60;65.40;;;;;;5130789;27;20486;-67
2021/04/26 12:10:10;;;;;;;4.27;2.53;;;18.80;70.00;;;;;;5114580;27;20463;-69
2021/04/26 12:12:36;;;;;;;2.33;2.10;;;18.60;60.30;;;;;;5132750;27;20936;-65
2021/04/26 12:15:10;;;;;;;3.10;2.23;;;18.40;69.90;;;;;;5111857;27;20480;-67
2021/04/26 12:17:39;;;;;;;2.73;2.30;;;18.60;71.60;;;;;;5125399;27;20175;-67
2021/04/26 12:20:14;;;;;;;2.40;2.20;;;18.70;72.30;;;;;;5125719;27;20917;-68
2021/04/26 12:22:41;;;;;;;4.00;2.20;;;18.80;67.40;;;;;;5112230;27;20855;-66
2021/04/26 12:25:09;;;;;;;2.30;2.10;;;18.50;62.40;;;;;;5128331;27;20457;-68
2021/04/26 12:27:36;;;;;;;3.23;2.10;;;18.20;64.60;;;;;;5131762;27;20441;-67
2021/04/26 12:30:13;;;;;;;3.33;3.03;;;18.50;69.50;;;;;;5125596;27;20498;-65
2021/04/26 12:32:39;;;;;;;3.57;2.50;;;17.90;58.80;;;;;;5105269;27;20530;-65
2021/04/26 12:35:08;;;;;;;3.77;2.83;;;17.40;62.90;;;;;;5126130;27;21106;-66
2021/04/26 12:37:37;;;;;;;4.97;3.30;;;17.40;59.00;;;;;;5128679;27;20202;-65
2021/04/26 12:40:22;;;;;;;3.60;2.67;;;17.20;59.40;;;;;;5129200;27;20427;-69
2021/04/26 12:43:10;;;;;;;3.30;2.40;;;17.10;58.80;;;;;;5127920;27;20509;-68
2021/04/26 12:45:39;;;;;;;2.43;2.23;;;17.10;59.70;;;;;;5128294;27;20438;-69
2021/04/26 12:48:08;;;;;;;2.33;2.03;;;17.10;59.90;;;;;;5128818;27;20458;-71
2021/04/26 12:50:48;;;;;;;3.17;2.60;;;17.50;58.70;;;;;;5110533;27;20935;-71